sensor_id;sensor_type;location;lat;lon;timestamp;temperature;humidity
52209;DHT22;38507;53.132;6.394;2023-07-30T00:01:39;15.50;99.90
52209;DHT22;38507;53.132;6.394;2023-07-30T00:04:05;15.50;99.90
52209;DHT22;38507;53.132;6.394;2023-07-30T00:06:31;15.50;99.90
52209;DHT22;38507;53.132;6.394;2023-07-30T00:08:56;15.50;99.90
52209;DHT22;38507;53.132;6.394;2023-07-30T00:11:22;15.50;99.90
52209;DHT22;38507;53.132;6.394;2023-07-30T00:13:47;15.50;99.90
52209;DHT22;38507;53.132;6.394;2023-07-30T00:16:13;15.50;99.90
52209;DHT22;38507;53.132;6.394;2023-07-30T00:18:39;15.50;99.90
52209;DHT22;38507;53.132;6.394;2023-07-30T00:21:04;15.40;99.90
52209;DHT22;38507;53.132;6.394;2023-07-30T00:23:30;15.50;99.90
52209;DHT22;38507;53.132;6.394;2023-07-30T00:25:56;15.50;99.90
52209;DHT22;38507;53.132;6.394;2023-07-30T00:28:21;15.50;99.90
52209;DHT22;38507;53.132;6.394;2023-07-30T00:30:47;15.50;99.90
52209;DHT22;38507;53.132;6.394;2023-07-30T00:33:12;15.40;99.90
52209;DHT22;38507;53.132;6.394;2023-07-30T00:35:38;15.40;99.90
52209;DHT22;38507;53.132;6.394;2023-07-30T00:38:03;15.40;99.90
52209;DHT22;38507;53.132;6.394;2023-07-30T00:40:29;15.40;99.90
52209;DHT22;38507;53.132;6.394;2023-07-30T00:42:55;15.40;99.90
52209;DHT22;38507;53.132;6.394;2023-07-30T00:45:21;15.30;99.90
52209;DHT22;38507;53.132;6.394;2023-07-30T00:47:47;15.40;99.90
52209;DHT22;38507;53.132;6.394;2023-07-30T00:50:14;15.40;99.90
52209;DHT22;38507;53.132;6.394;2023-07-30T00:52:41;15.20;99.90
52209;DHT22;38507;53.132;6.394;2023-07-30T00:55:07;15.20;99.90
52209;DHT22;38507;53.132;6.394;2023-07-30T00:57:36;15.20;99.90
52209;DHT22;38507;53.132;6.394;2023-07-30T01:00:03;15.20;99.90
52209;DHT22;38507;53.132;6.394;2023-07-30T01:02:31;15.20;99.90
52209;DHT22;38507;53.132;6.394;2023-07-30T01:04:57;15.20;99.90
52209;DHT22;38507;53.132;6.394;2023-07-30T01:07:25;15.20;99.90
52209;DHT22;38507;53.132;6.394;2023-07-30T01:09:51;15.30;99.90
52209;DHT22;38507;53.132;6.394;2023-07-30T01:12:17;15.30;99.90
52209;DHT22;38507;53.132;6.394;2023-07-30T01:14:44;15.20;99.90
52209;DHT22;38507;53.132;6.394;2023-07-30T01:17:11;15.20;99.90
52209;DHT22;38507;53.132;6.394;2023-07-30T01:19:37;15.30;99.90
52209;DHT22;38507;53.132;6.394;2023-07-30T01:22:03;15.30;99.90
52209;DHT22;38507;53.132;6.394;2023-07-30T01:24:29;15.20;99.90
52209;DHT22;38507;53.132;6.394;2023-07-30T01:26:55;15.30;99.90
52209;DHT22;38507;53.132;6.394;2023-07-30T01:29:33;15.30;99.90
52209;DHT22;38507;53.132;6.394;2023-07-30T01:32:04;15.30;99.90
52209;DHT22;38507;53.132;6.394;2023-07-30T01:34:34;15.30;99.90
52209;DHT22;38507;53.132;6.394;2023-07-30T01:37:00;15.40;99.90
52209;DHT22;38507;53.132;6.394;2023-07-30T01:39:27;15.40;99.90
52209;DHT22;38507;53.132;6.394;2023-07-30T01:41:56;15.40;99.90
52209;DHT22;38507;53.132;6.394;2023-07-30T01:44:22;15.50;99.90
52209;DHT22;38507;53.132;6.394;2023-07-30T01:46:47;15.50;99.90
52209;DHT22;38507;53.132;6.394;2023-07-30T01:49:13;15.50;99.90
52209;DHT22;38507;53.132;6.394;2023-07-30T01:51:38;15.50;99.90
52209;DHT22;38507;53.132;6.394;2023-07-30T01:54:04;15.50;99.90
52209;DHT22;38507;53.132;6.394;2023-07-30T01:56:30;15.60;99.90
52209;DHT22;38507;53.132;6.394;2023-07-30T01:58:55;15.60;99.90
52209;DHT22;38507;53.132;6.394;2023-07-30T02:01:21;15.60;99.90
52209;DHT22;38507;53.132;6.394;2023-07-30T02:03:47;15.60;99.90
52209;DHT22;38507;53.132;6.394;2023-07-30T02:06:12;15.60;99.90
52209;DHT22;38507;53.132;6.394;2023-07-30T02:08:38;15.60;99.90
52209;DHT22;38507;53.132;6.394;2023-07-30T02:11:04;15.70;99.90
52209;DHT22;38507;53.132;6.394;2023-07-30T02:13:29;15.60;99.90
52209;DHT22;38507;53.132;6.394;2023-07-30T02:15:55;15.60;99.90
52209;DHT22;38507;53.132;6.394;2023-07-30T02:18:21;15.70;99.90
52209;DHT22;38507;53.132;6.394;2023-07-30T02:20:46;15.70;99.90
52209;DHT22;38507;53.132;6.394;2023-07-30T02:23:14;15.60;99.90
52209;DHT22;38507;53.132;6.394;2023-07-30T02:25:41;15.60;99.90
52209;DHT22;38507;53.132;6.394;2023-07-30T02:28:06;15.60;99.90
52209;DHT22;38507;53.132;6.394;2023-07-30T02:30:33;15.70;99.90
52209;DHT22;38507;53.132;6.394;2023-07-30T02:32:59;15.60;99.90
52209;DHT22;38507;53.132;6.394;2023-07-30T02:35:25;15.60;99.90
52209;DHT22;38507;53.132;6.394;2023-07-30T02:37:50;15.50;99.90
52209;DHT22;38507;53.132;6.394;2023-07-30T02:40:16;15.50;99.90
52209;DHT22;38507;53.132;6.394;2023-07-30T02:42:42;15.60;99.90
52209;DHT22;38507;53.132;6.394;2023-07-30T02:45:08;15.60;99.90
52209;DHT22;38507;53.132;6.394;2023-07-30T02:47:33;15.50;99.90
52209;DHT22;38507;53.132;6.394;2023-07-30T02:49:59;15.50;99.90
52209;DHT22;38507;53.132;6.394;2023-07-30T02:52:25;15.50;99.90
52209;DHT22;38507;53.132;6.394;2023-07-30T02:54:50;15.50;99.90
52209;DHT22;38507;53.132;6.394;2023-07-30T02:57:16;15.50;99.90
52209;DHT22;38507;53.132;6.394;2023-07-30T02:59:41;15.50;99.90
52209;DHT22;38507;53.132;6.394;2023-07-30T03:02:07;15.50;99.90
52209;DHT22;38507;53.132;6.394;2023-07-30T03:04:33;15.40;99.90
52209;DHT22;38507;53.132;6.394;2023-07-30T03:06:59;15.40;99.90
52209;DHT22;38507;53.132;6.394;2023-07-30T03:09:24;15.40;99.90
52209;DHT22;38507;53.132;6.394;2023-07-30T03:11:50;15.40;99.90
52209;DHT22;38507;53.132;6.394;2023-07-30T03:14:16;15.40;99.90
52209;DHT22;38507;53.132;6.394;2023-07-30T03:16:46;15.40;99.90
52209;DHT22;38507;53.132;6.394;2023-07-30T03:19:11;15.40;99.90
52209;DHT22;38507;53.132;6.394;2023-07-30T03:21:37;15.40;99.90
52209;DHT22;38507;53.132;6.394;2023-07-30T03:24:03;15.40;99.90
52209;DHT22;38507;53.132;6.394;2023-07-30T03:26:28;15.40;99.90
52209;DHT22;38507;53.132;6.394;2023-07-30T03:28:54;15.40;99.90
52209;DHT22;38507;53.132;6.394;2023-07-30T03:31:20;15.30;99.90
52209;DHT22;38507;53.132;6.394;2023-07-30T03:33:45;15.40;99.90
52209;DHT22;38507;53.132;6.394;2023-07-30T03:36:12;15.30;99.90
52209;DHT22;38507;53.132;6.394;2023-07-30T03:38:39;15.30;99.90
52209;DHT22;38507;53.132;6.394;2023-07-30T03:41:05;15.30;99.90
52209;DHT22;38507;53.132;6.394;2023-07-30T03:43:32;15.30;99.90
52209;DHT22;38507;53.132;6.394;2023-07-30T03:45:58;15.30;99.90
52209;DHT22;38507;53.132;6.394;2023-07-30T03:48:23;15.30;99.90
52209;DHT22;38507;53.132;6.394;2023-07-30T03:50:49;15.20;99.90
52209;DHT22;38507;53.132;6.394;2023-07-30T03:53:15;15.30;99.90
52209;DHT22;38507;53.132;6.394;2023-07-30T03:55:41;15.20;99.90
52209;DHT22;38507;53.132;6.394;2023-07-30T03:58:06;15.30;99.90
52209;DHT22;38507;53.132;6.394;2023-07-30T04:00:33;15.30;99.90
52209;DHT22;38507;53.132;6.394;2023-07-30T04:02:58;15.20;99.90
52209;DHT22;38507;53.132;6.394;2023-07-30T04:05:24;15.30;99.90
52209;DHT22;38507;53.132;6.394;2023-07-30T04:07:50;15.20;99.90
52209;DHT22;38507;53.132;6.394;2023-07-30T04:10:15;15.30;99.90
52209;DHT22;38507;53.132;6.394;2023-07-30T04:12:41;15.30;99.90
52209;DHT22;38507;53.132;6.394;2023-07-30T04:15:07;15.30;99.90
52209;DHT22;38507;53.132;6.394;2023-07-30T04:17:35;15.20;99.90
52209;DHT22;38507;53.132;6.394;2023-07-30T04:20:01;15.20;99.90
52209;DHT22;38507;53.132;6.394;2023-07-30T04:22:27;15.20;99.90
52209;DHT22;38507;53.132;6.394;2023-07-30T04:24:52;15.30;99.90
52209;DHT22;38507;53.132;6.394;2023-07-30T04:27:18;15.20;99.90
52209;DHT22;38507;53.132;6.394;2023-07-30T04:29:44;15.20;99.90
52209;DHT22;38507;53.132;6.394;2023-07-30T04:32:09;15.20;99.90
52209;DHT22;38507;53.132;6.394;2023-07-30T04:34:35;15.30;99.90
52209;DHT22;38507;53.132;6.394;2023-07-30T04:37:00;15.30;99.90
52209;DHT22;38507;53.132;6.394;2023-07-30T04:39:27;15.30;99.90
52209;DHT22;38507;53.132;6.394;2023-07-30T04:41:53;15.30;99.90
52209;DHT22;38507;53.132;6.394;2023-07-30T04:44:19;15.40;99.90
52209;DHT22;38507;53.132;6.394;2023-07-30T04:46:44;15.40;99.90
52209;DHT22;38507;53.132;6.394;2023-07-30T04:49:10;15.40;99.90
52209;DHT22;38507;53.132;6.394;2023-07-30T04:51:36;15.40;99.90
52209;DHT22;38507;53.132;6.394;2023-07-30T04:54:01;15.50;99.90
52209;DHT22;38507;53.132;6.394;2023-07-30T04:56:27;15.60;99.90
52209;DHT22;38507;53.132;6.394;2023-07-30T04:58:54;15.60;99.90
52209;DHT22;38507;53.132;6.394;2023-07-30T05:01:19;15.60;99.90
52209;DHT22;38507;53.132;6.394;2023-07-30T05:03:45;15.70;99.90
52209;DHT22;38507;53.132;6.394;2023-07-30T05:06:11;15.70;99.90
52209;DHT22;38507;53.132;6.394;2023-07-30T05:08:36;15.80;99.90
52209;DHT22;38507;53.132;6.394;2023-07-30T05:11:02;15.80;99.90
52209;DHT22;38507;53.132;6.394;2023-07-30T05:13:27;15.80;99.90
52209;DHT22;38507;53.132;6.394;2023-07-30T05:15:53;15.80;99.90
52209;DHT22;38507;53.132;6.394;2023-07-30T05:18:19;15.90;99.90
52209;DHT22;38507;53.132;6.394;2023-07-30T05:20:46;15.90;99.90
52209;DHT22;38507;53.132;6.394;2023-07-30T05:23:12;15.90;99.90
52209;DHT22;38507;53.132;6.394;2023-07-30T05:25:37;15.90;99.90
52209;DHT22;38507;53.132;6.394;2023-07-30T05:28:03;16.00;99.90
52209;DHT22;38507;53.132;6.394;2023-07-30T05:30:29;16.00;99.90
52209;DHT22;38507;53.132;6.394;2023-07-30T05:32:55;16.10;99.90
52209;DHT22;38507;53.132;6.394;2023-07-30T05:35:20;16.10;99.90
52209;DHT22;38507;53.132;6.394;2023-07-30T05:37:47;16.20;99.90
52209;DHT22;38507;53.132;6.394;2023-07-30T05:40:12;16.20;99.90
52209;DHT22;38507;53.132;6.394;2023-07-30T05:42:38;16.30;99.90
52209;DHT22;38507;53.132;6.394;2023-07-30T05:45:04;16.30;99.90
52209;DHT22;38507;53.132;6.394;2023-07-30T05:47:30;16.30;99.90
52209;DHT22;38507;53.132;6.394;2023-07-30T05:49:55;16.40;99.90
52209;DHT22;38507;53.132;6.394;2023-07-30T05:52:21;16.40;99.90
52209;DHT22;38507;53.132;6.394;2023-07-30T05:54:46;16.40;99.90
52209;DHT22;38507;53.132;6.394;2023-07-30T05:57:12;16.50;99.90
52209;DHT22;38507;53.132;6.394;2023-07-30T05:59:37;16.50;99.90
52209;DHT22;38507;53.132;6.394;2023-07-30T06:02:03;16.50;99.90
52209;DHT22;38507;53.132;6.394;2023-07-30T06:04:32;16.50;99.90
52209;DHT22;38507;53.132;6.394;2023-07-30T06:07:01;16.60;99.90
52209;DHT22;38507;53.132;6.394;2023-07-30T06:09:28;16.60;99.90
52209;DHT22;38507;53.132;6.394;2023-07-30T06:11:54;16.60;99.90
52209;DHT22;38507;53.132;6.394;2023-07-30T06:14:20;16.70;99.90
52209;DHT22;38507;53.132;6.394;2023-07-30T06:16:46;16.80;99.90
52209;DHT22;38507;53.132;6.394;2023-07-30T06:19:11;16.80;99.90
52209;DHT22;38507;53.132;6.394;2023-07-30T06:21:37;16.80;99.90
52209;DHT22;38507;53.132;6.394;2023-07-30T06:24:02;16.80;99.90
52209;DHT22;38507;53.132;6.394;2023-07-30T06:26:28;16.90;99.90
52209;DHT22;38507;53.132;6.394;2023-07-30T06:28:54;16.90;99.90
52209;DHT22;38507;53.132;6.394;2023-07-30T06:31:19;16.90;99.90
52209;DHT22;38507;53.132;6.394;2023-07-30T06:33:45;17.00;99.90
52209;DHT22;38507;53.132;6.394;2023-07-30T06:36:11;17.10;99.90
52209;DHT22;38507;53.132;6.394;2023-07-30T06:38:36;17.10;99.90
52209;DHT22;38507;53.132;6.394;2023-07-30T06:41:02;17.20;99.90
52209;DHT22;38507;53.132;6.394;2023-07-30T06:43:28;17.20;99.90
52209;DHT22;38507;53.132;6.394;2023-07-30T06:45:54;17.30;99.90
52209;DHT22;38507;53.132;6.394;2023-07-30T06:48:20;17.30;99.90
52209;DHT22;38507;53.132;6.394;2023-07-30T06:50:46;17.40;99.90
52209;DHT22;38507;53.132;6.394;2023-07-30T06:53:12;17.40;99.90
52209;DHT22;38507;53.132;6.394;2023-07-30T06:55:37;17.40;99.90
52209;DHT22;38507;53.132;6.394;2023-07-30T06:58:03;17.50;99.90
52209;DHT22;38507;53.132;6.394;2023-07-30T07:00:29;17.50;99.90
52209;DHT22;38507;53.132;6.394;2023-07-30T07:02:55;17.60;99.90
52209;DHT22;38507;53.132;6.394;2023-07-30T07:05:20;17.60;99.90
52209;DHT22;38507;53.132;6.394;2023-07-30T07:07:46;17.70;99.90
52209;DHT22;38507;53.132;6.394;2023-07-30T07:10:12;17.80;99.90
52209;DHT22;38507;53.132;6.394;2023-07-30T07:12:38;17.80;99.90
52209;DHT22;38507;53.132;6.394;2023-07-30T07:15:05;17.80;99.90
52209;DHT22;38507;53.132;6.394;2023-07-30T07:17:30;17.80;99.90
52209;DHT22;38507;53.132;6.394;2023-07-30T07:19:57;17.90;99.90
52209;DHT22;38507;53.132;6.394;2023-07-30T07:22:23;18.10;99.90
52209;DHT22;38507;53.132;6.394;2023-07-30T07:24:49;18.20;99.90
52209;DHT22;38507;53.132;6.394;2023-07-30T07:27:17;18.30;99.90
52209;DHT22;38507;53.132;6.394;2023-07-30T07:29:43;18.40;99.90
52209;DHT22;38507;53.132;6.394;2023-07-30T07:32:09;18.40;99.90
52209;DHT22;38507;53.132;6.394;2023-07-30T07:34:35;18.60;99.90
52209;DHT22;38507;53.132;6.394;2023-07-30T07:37:01;18.70;99.90
52209;DHT22;38507;53.132;6.394;2023-07-30T07:39:27;18.90;99.90
52209;DHT22;38507;53.132;6.394;2023-07-30T07:41:52;19.00;99.90
52209;DHT22;38507;53.132;6.394;2023-07-30T07:44:18;19.00;99.90
52209;DHT22;38507;53.132;6.394;2023-07-30T07:46:43;19.00;99.90
52209;DHT22;38507;53.132;6.394;2023-07-30T07:49:09;18.90;99.90
52209;DHT22;38507;53.132;6.394;2023-07-30T07:51:35;18.90;99.90
52209;DHT22;38507;53.132;6.394;2023-07-30T07:54:00;18.70;99.90
52209;DHT22;38507;53.132;6.394;2023-07-30T07:56:26;18.60;99.90
52209;DHT22;38507;53.132;6.394;2023-07-30T07:58:52;18.50;99.90
52209;DHT22;38507;53.132;6.394;2023-07-30T08:01:17;18.40;99.90
52209;DHT22;38507;53.132;6.394;2023-07-30T08:03:44;18.40;99.90
52209;DHT22;38507;53.132;6.394;2023-07-30T08:06:10;18.30;99.90
52209;DHT22;38507;53.132;6.394;2023-07-30T08:08:35;18.20;99.90
52209;DHT22;38507;53.132;6.394;2023-07-30T08:11:08;18.20;99.90
52209;DHT22;38507;53.132;6.394;2023-07-30T08:13:34;18.10;99.90
52209;DHT22;38507;53.132;6.394;2023-07-30T08:16:00;18.00;99.90
52209;DHT22;38507;53.132;6.394;2023-07-30T08:18:26;17.90;99.90
52209;DHT22;38507;53.132;6.394;2023-07-30T08:20:52;17.90;99.90
52209;DHT22;38507;53.132;6.394;2023-07-30T08:23:18;17.90;99.90
52209;DHT22;38507;53.132;6.394;2023-07-30T08:25:43;17.90;99.90
52209;DHT22;38507;53.132;6.394;2023-07-30T08:28:09;17.90;99.90
52209;DHT22;38507;53.132;6.394;2023-07-30T08:30:34;17.80;99.90
52209;DHT22;38507;53.132;6.394;2023-07-30T08:33:00;17.90;99.90
52209;DHT22;38507;53.132;6.394;2023-07-30T08:35:26;17.80;99.90
52209;DHT22;38507;53.132;6.394;2023-07-30T08:37:54;17.80;99.90
52209;DHT22;38507;53.132;6.394;2023-07-30T08:40:24;17.90;99.90
52209;DHT22;38507;53.132;6.394;2023-07-30T08:42:51;17.90;99.90
52209;DHT22;38507;53.132;6.394;2023-07-30T08:45:17;17.90;99.90
52209;DHT22;38507;53.132;6.394;2023-07-30T08:47:43;18.20;99.90
52209;DHT22;38507;53.132;6.394;2023-07-30T08:50:10;18.30;99.90
52209;DHT22;38507;53.132;6.394;2023-07-30T08:52:35;18.40;99.90
52209;DHT22;38507;53.132;6.394;2023-07-30T08:55:02;18.50;99.90
52209;DHT22;38507;53.132;6.394;2023-07-30T08:57:29;18.70;99.90
52209;DHT22;38507;53.132;6.394;2023-07-30T09:02:53;18.80;99.90
52209;DHT22;38507;53.132;6.394;2023-07-30T09:05:20;18.80;99.90
52209;DHT22;38507;53.132;6.394;2023-07-30T09:07:46;18.70;99.90
52209;DHT22;38507;53.132;6.394;2023-07-30T09:10:13;18.70;99.90
52209;DHT22;38507;53.132;6.394;2023-07-30T09:12:39;18.60;99.90
52209;DHT22;38507;53.132;6.394;2023-07-30T09:15:06;18.40;99.90
52209;DHT22;38507;53.132;6.394;2023-07-30T09:17:33;18.50;99.90
52209;DHT22;38507;53.132;6.394;2023-07-30T09:20:03;18.30;99.90
52209;DHT22;38507;53.132;6.394;2023-07-30T09:22:31;18.30;99.90
52209;DHT22;38507;53.132;6.394;2023-07-30T09:25:01;18.30;99.90
52209;DHT22;38507;53.132;6.394;2023-07-30T09:27:28;18.30;99.90
52209;DHT22;38507;53.132;6.394;2023-07-30T09:29:59;18.30;99.90
52209;DHT22;38507;53.132;6.394;2023-07-30T09:32:35;18.20;99.90
52209;DHT22;38507;53.132;6.394;2023-07-30T09:35:08;18.20;99.90
52209;DHT22;38507;53.132;6.394;2023-07-30T09:37:39;18.10;99.90
52209;DHT22;38507;53.132;6.394;2023-07-30T09:40:13;18.10;99.90
52209;DHT22;38507;53.132;6.394;2023-07-30T09:42:42;18.10;99.90
52209;DHT22;38507;53.132;6.394;2023-07-30T09:45:23;18.20;99.90
52209;DHT22;38507;53.132;6.394;2023-07-30T09:47:50;18.20;99.90
52209;DHT22;38507;53.132;6.394;2023-07-30T09:50:16;18.30;99.90
52209;DHT22;38507;53.132;6.394;2023-07-30T09:52:43;18.40;99.90
52209;DHT22;38507;53.132;6.394;2023-07-30T09:55:09;18.40;99.90
52209;DHT22;38507;53.132;6.394;2023-07-30T09:57:36;18.50;99.90
52209;DHT22;38507;53.132;6.394;2023-07-30T10:00:03;18.50;99.90
52209;DHT22;38507;53.132;6.394;2023-07-30T10:02:29;18.40;99.90
52209;DHT22;38507;53.132;6.394;2023-07-30T10:04:59;18.50;99.90
52209;DHT22;38507;53.132;6.394;2023-07-30T10:07:27;18.70;99.90
52209;DHT22;38507;53.132;6.394;2023-07-30T10:09:58;18.80;99.90
52209;DHT22;38507;53.132;6.394;2023-07-30T10:12:32;18.90;99.90
52209;DHT22;38507;53.132;6.394;2023-07-30T10:15:00;19.00;99.90
52209;DHT22;38507;53.132;6.394;2023-07-30T10:17:25;19.10;99.90
52209;DHT22;38507;53.132;6.394;2023-07-30T10:19:51;19.40;99.90
52209;DHT22;38507;53.132;6.394;2023-07-30T10:27:24;19.40;99.90
52209;DHT22;38507;53.132;6.394;2023-07-30T10:33:02;18.80;99.90
52209;DHT22;38507;53.132;6.394;2023-07-30T10:35:45;18.80;99.90
52209;DHT22;38507;53.132;6.394;2023-07-30T10:38:18;18.70;99.90
52209;DHT22;38507;53.132;6.394;2023-07-30T10:41:07;18.90;99.90
52209;DHT22;38507;53.132;6.394;2023-07-30T10:43:41;19.10;99.90
52209;DHT22;38507;53.132;6.394;2023-07-30T10:46:09;19.10;99.90
52209;DHT22;38507;53.132;6.394;2023-07-30T10:48:37;19.00;99.90
52209;DHT22;38507;53.132;6.394;2023-07-30T10:51:11;19.00;99.90
52209;DHT22;38507;53.132;6.394;2023-07-30T10:53:37;19.00;99.90
52209;DHT22;38507;53.132;6.394;2023-07-30T10:56:05;19.00;99.90
52209;DHT22;38507;53.132;6.394;2023-07-30T10:58:32;19.00;99.90
52209;DHT22;38507;53.132;6.394;2023-07-30T11:00:58;19.40;99.90
52209;DHT22;38507;53.132;6.394;2023-07-30T11:03:25;19.70;99.90
52209;DHT22;38507;53.132;6.394;2023-07-30T11:05:52;19.60;99.90
52209;DHT22;38507;53.132;6.394;2023-07-30T11:08:18;19.50;99.90
52209;DHT22;38507;53.132;6.394;2023-07-30T11:10:45;19.50;99.90
52209;DHT22;38507;53.132;6.394;2023-07-30T11:13:13;19.90;99.90
52209;DHT22;38507;53.132;6.394;2023-07-30T11:15:43;19.70;99.90
52209;DHT22;38507;53.132;6.394;2023-07-30T11:18:12;19.90;99.90
52209;DHT22;38507;53.132;6.394;2023-07-30T11:20:38;19.90;99.90
52209;DHT22;38507;53.132;6.394;2023-07-30T11:23:21;20.20;99.90
52209;DHT22;38507;53.132;6.394;2023-07-30T11:25:50;20.40;99.90
52209;DHT22;38507;53.132;6.394;2023-07-30T11:28:36;20.70;99.90
52209;DHT22;38507;53.132;6.394;2023-07-30T11:31:07;20.60;99.90
52209;DHT22;38507;53.132;6.394;2023-07-30T11:33:41;20.40;99.90
52209;DHT22;38507;53.132;6.394;2023-07-30T11:36:10;20.20;99.90
52209;DHT22;38507;53.132;6.394;2023-07-30T11:38:38;20.30;99.90
52209;DHT22;38507;53.132;6.394;2023-07-30T11:41:04;20.50;99.90
52209;DHT22;38507;53.132;6.394;2023-07-30T11:43:31;20.70;99.90
52209;DHT22;38507;53.132;6.394;2023-07-30T11:46:07;21.00;99.90
52209;DHT22;38507;53.132;6.394;2023-07-30T11:48:34;21.20;99.90
52209;DHT22;38507;53.132;6.394;2023-07-30T11:51:00;21.40;99.90
52209;DHT22;38507;53.132;6.394;2023-07-30T11:53:53;21.40;99.90
52209;DHT22;38507;53.132;6.394;2023-07-30T11:56:21;21.20;99.90
52209;DHT22;38507;53.132;6.394;2023-07-30T11:58:48;20.90;99.90
52209;DHT22;38507;53.132;6.394;2023-07-30T12:01:18;20.30;99.90
52209;DHT22;38507;53.132;6.394;2023-07-30T12:03:43;19.60;99.90
52209;DHT22;38507;53.132;6.394;2023-07-30T12:06:10;19.00;99.90
52209;DHT22;38507;53.132;6.394;2023-07-30T12:08:37;18.70;99.90
52209;DHT22;38507;53.132;6.394;2023-07-30T12:11:04;18.40;99.90
52209;DHT22;38507;53.132;6.394;2023-07-30T12:13:30;18.40;99.90
52209;DHT22;38507;53.132;6.394;2023-07-30T12:15:57;18.40;99.90
52209;DHT22;38507;53.132;6.394;2023-07-30T12:18:24;18.70;99.90
52209;DHT22;38507;53.132;6.394;2023-07-30T12:20:51;18.80;99.90
52209;DHT22;38507;53.132;6.394;2023-07-30T12:23:17;18.80;99.90
52209;DHT22;38507;53.132;6.394;2023-07-30T12:25:43;19.00;99.90
52209;DHT22;38507;53.132;6.394;2023-07-30T12:28:10;19.30;99.90
52209;DHT22;38507;53.132;6.394;2023-07-30T12:30:35;19.60;99.90
52209;DHT22;38507;53.132;6.394;2023-07-30T12:33:03;19.80;99.90
52209;DHT22;38507;53.132;6.394;2023-07-30T12:35:29;20.00;99.90
52209;DHT22;38507;53.132;6.394;2023-07-30T12:37:55;20.20;99.90
52209;DHT22;38507;53.132;6.394;2023-07-30T12:40:21;20.20;99.90
52209;DHT22;38507;53.132;6.394;2023-07-30T12:42:46;20.40;99.90
52209;DHT22;38507;53.132;6.394;2023-07-30T12:45:12;20.50;99.90
52209;DHT22;38507;53.132;6.394;2023-07-30T12:47:37;20.60;99.90
52209;DHT22;38507;53.132;6.394;2023-07-30T12:50:04;20.80;99.90
52209;DHT22;38507;53.132;6.394;2023-07-30T12:52:33;20.80;99.90
52209;DHT22;38507;53.132;6.394;2023-07-30T12:54:59;20.50;99.90
52209;DHT22;38507;53.132;6.394;2023-07-30T12:57:24;20.50;99.90
52209;DHT22;38507;53.132;6.394;2023-07-30T12:59:50;20.70;99.90
52209;DHT22;38507;53.132;6.394;2023-07-30T13:02:15;20.50;99.90
52209;DHT22;38507;53.132;6.394;2023-07-30T13:04:41;20.50;99.90
52209;DHT22;38507;53.132;6.394;2023-07-30T13:07:07;20.70;99.90
52209;DHT22;38507;53.132;6.394;2023-07-30T13:09:32;20.80;99.90
52209;DHT22;38507;53.132;6.394;2023-07-30T13:11:58;20.80;99.90
52209;DHT22;38507;53.132;6.394;2023-07-30T13:14:24;20.90;99.90
52209;DHT22;38507;53.132;6.394;2023-07-30T13:16:49;21.20;99.90
52209;DHT22;38507;53.132;6.394;2023-07-30T13:19:15;21.50;99.90
52209;DHT22;38507;53.132;6.394;2023-07-30T13:21:40;21.50;99.90
52209;DHT22;38507;53.132;6.394;2023-07-30T13:24:06;21.60;99.90
52209;DHT22;38507;53.132;6.394;2023-07-30T13:26:32;21.90;99.90
52209;DHT22;38507;53.132;6.394;2023-07-30T13:28:58;21.90;99.90
52209;DHT22;38507;53.132;6.394;2023-07-30T13:31:23;22.00;99.90
52209;DHT22;38507;53.132;6.394;2023-07-30T13:33:49;22.00;99.90
52209;DHT22;38507;53.132;6.394;2023-07-30T13:36:16;21.80;99.90
52209;DHT22;38507;53.132;6.394;2023-07-30T13:38:42;21.90;99.90
52209;DHT22;38507;53.132;6.394;2023-07-30T13:41:09;21.70;99.90
52209;DHT22;38507;53.132;6.394;2023-07-30T13:43:35;21.50;99.90
52209;DHT22;38507;53.132;6.394;2023-07-30T13:46:01;21.50;99.90
52209;DHT22;38507;53.132;6.394;2023-07-30T13:48:27;21.30;99.90
52209;DHT22;38507;53.132;6.394;2023-07-30T13:50:52;21.00;99.90
52209;DHT22;38507;53.132;6.394;2023-07-30T13:53:19;20.90;99.90
52209;DHT22;38507;53.132;6.394;2023-07-30T13:55:45;20.70;99.90
52209;DHT22;38507;53.132;6.394;2023-07-30T13:58:11;20.60;99.90
52209;DHT22;38507;53.132;6.394;2023-07-30T14:00:36;20.60;99.90
52209;DHT22;38507;53.132;6.394;2023-07-30T14:03:02;20.40;99.90
52209;DHT22;38507;53.132;6.394;2023-07-30T14:05:28;20.40;99.90
52209;DHT22;38507;53.132;6.394;2023-07-30T14:07:54;20.30;99.90
52209;DHT22;38507;53.132;6.394;2023-07-30T14:10:22;20.10;99.90
52209;DHT22;38507;53.132;6.394;2023-07-30T14:12:48;19.80;99.90
52209;DHT22;38507;53.132;6.394;2023-07-30T14:15:14;19.60;99.90
52209;DHT22;38507;53.132;6.394;2023-07-30T14:17:42;19.80;99.90
52209;DHT22;38507;53.132;6.394;2023-07-30T14:20:09;20.00;99.90
52209;DHT22;38507;53.132;6.394;2023-07-30T14:22:35;20.30;99.90
52209;DHT22;38507;53.132;6.394;2023-07-30T14:25:04;20.10;99.90
52209;DHT22;38507;53.132;6.394;2023-07-30T14:27:30;20.00;99.90
52209;DHT22;38507;53.132;6.394;2023-07-30T14:29:56;19.80;99.90
52209;DHT22;38507;53.132;6.394;2023-07-30T14:32:23;19.80;99.90
52209;DHT22;38507;53.132;6.394;2023-07-30T14:34:49;19.70;99.90
52209;DHT22;38507;53.132;6.394;2023-07-30T14:37:14;19.60;99.90
52209;DHT22;38507;53.132;6.394;2023-07-30T14:39:40;19.50;99.90
52209;DHT22;38507;53.132;6.394;2023-07-30T14:42:07;19.30;99.90
52209;DHT22;38507;53.132;6.394;2023-07-30T14:44:33;19.10;99.90
52209;DHT22;38507;53.132;6.394;2023-07-30T14:46:58;18.80;99.90
52209;DHT22;38507;53.132;6.394;2023-07-30T14:49:25;18.50;99.90
52209;DHT22;38507;53.132;6.394;2023-07-30T14:51:51;18.20;99.90
52209;DHT22;38507;53.132;6.394;2023-07-30T14:54:17;17.90;99.90
52209;DHT22;38507;53.132;6.394;2023-07-30T14:56:43;17.80;99.90
52209;DHT22;38507;53.132;6.394;2023-07-30T14:59:09;17.70;99.90
52209;DHT22;38507;53.132;6.394;2023-07-30T15:01:35;17.80;99.90
52209;DHT22;38507;53.132;6.394;2023-07-30T15:04:01;17.80;99.90
52209;DHT22;38507;53.132;6.394;2023-07-30T15:06:26;17.80;99.90
52209;DHT22;38507;53.132;6.394;2023-07-30T15:08:55;17.80;99.90
52209;DHT22;38507;53.132;6.394;2023-07-30T15:11:21;17.80;99.90
52209;DHT22;38507;53.132;6.394;2023-07-30T15:13:46;18.00;99.90
52209;DHT22;38507;53.132;6.394;2023-07-30T15:16:12;18.20;99.90
52209;DHT22;38507;53.132;6.394;2023-07-30T15:18:38;18.40;99.90
52209;DHT22;38507;53.132;6.394;2023-07-30T15:21:03;18.60;99.90
52209;DHT22;38507;53.132;6.394;2023-07-30T15:23:29;18.70;99.90
52209;DHT22;38507;53.132;6.394;2023-07-30T15:25:55;18.70;99.90
52209;DHT22;38507;53.132;6.394;2023-07-30T15:28:20;18.70;99.90
52209;DHT22;38507;53.132;6.394;2023-07-30T15:30:46;18.70;99.90
52209;DHT22;38507;53.132;6.394;2023-07-30T15:33:12;18.80;99.90
52209;DHT22;38507;53.132;6.394;2023-07-30T15:35:37;19.10;99.90
52209;DHT22;38507;53.132;6.394;2023-07-30T15:38:07;19.30;99.90